sensor_id;sensor_type;location;lat;lon;timestamp;P1;durP1;ratioP1;P2;durP2;ratioP2
31087;SDS011;17745;55.914;37.554;2023-03-16T00:01:12;22.70;;;14.77;;
31087;SDS011;17745;55.914;37.554;2023-03-16T00:03:39;21.17;;;14.57;;
31087;SDS011;17745;55.914;37.554;2023-03-16T00:06:07;24.42;;;15.13;;
31087;SDS011;17745;55.914;37.554;2023-03-16T00:08:35;26.73;;;15.23;;
31087;SDS011;17745;55.914;37.554;2023-03-16T00:11:04;22.58;;;14.85;;
31087;SDS011;17745;55.914;37.554;2023-03-16T00:13:31;23.17;;;13.18;;
31087;SDS011;17745;55.914;37.554;2023-03-16T00:16:00;20.23;;;15.02;;
31087;SDS011;17745;55.914;37.554;2023-03-16T00:18:30;20.27;;;15.05;;
31087;SDS011;17745;55.914;37.554;2023-03-16T00:21:03;23.35;;;16.15;;
31087;SDS011;17745;55.914;37.554;2023-03-16T00:23:32;22.50;;;14.60;;
31087;SDS011;17745;55.914;37.554;2023-03-16T00:26:01;20.77;;;15.15;;
31087;SDS011;17745;55.914;37.554;2023-03-16T00:28:31;25.08;;;14.57;;
31087;SDS011;17745;55.914;37.554;2023-03-16T00:31:00;22.67;;;15.23;;
31087;SDS011;17745;55.914;37.554;2023-03-16T00:33:28;19.98;;;14.52;;
31087;SDS011;17745;55.914;37.554;2023-03-16T00:36:00;23.38;;;14.30;;
31087;SDS011;17745;55.914;37.554;2023-03-16T00:38:28;21.05;;;14.87;;
31087;SDS011;17745;55.914;37.554;2023-03-16T00:40:57;25.08;;;15.23;;
31087;SDS011;17745;55.914;37.554;2023-03-16T00:43:25;24.27;;;13.98;;
31087;SDS011;17745;55.914;37.554;2023-03-16T00:45:56;26.83;;;15.50;;
31087;SDS011;17745;55.914;37.554;2023-03-16T00:48:26;21.35;;;15.32;;
31087;SDS011;17745;55.914;37.554;2023-03-16T00:50:55;22.62;;;15.13;;
31087;SDS011;17745;55.914;37.554;2023-03-16T00:53:23;22.80;;;16.12;;
31087;SDS011;17745;55.914;37.554;2023-03-16T00:55:51;27.20;;;15.13;;
31087;SDS011;17745;55.914;37.554;2023-03-16T00:58:18;23.58;;;15.05;;
31087;SDS011;17745;55.914;37.554;2023-03-16T01:00:46;26.70;;;16.12;;
31087;SDS011;17745;55.914;37.554;2023-03-16T01:03:16;22.15;;;15.13;;
31087;SDS011;17745;55.914;37.554;2023-03-16T01:05:43;24.20;;;14.48;;
31087;SDS011;17745;55.914;37.554;2023-03-16T01:08:12;25.92;;;15.55;;
31087;SDS011;17745;55.914;37.554;2023-03-16T01:10:40;20.15;;;14.75;;
31087;SDS011;17745;55.914;37.554;2023-03-16T01:13:10;26.42;;;15.13;;
31087;SDS011;17745;55.914;37.554;2023-03-16T01:15:37;20.98;;;15.35;;
31087;SDS011;17745;55.914;37.554;2023-03-16T01:18:06;23.10;;;16.10;;
31087;SDS011;17745;55.914;37.554;2023-03-16T01:20:33;22.92;;;16.33;;
31087;SDS011;17745;55.914;37.554;2023-03-16T01:23:01;22.70;;;16.70;;
31087;SDS011;17745;55.914;37.554;2023-03-16T01:25:32;20.95;;;16.17;;
31087;SDS011;17745;55.914;37.554;2023-03-16T01:28:00;21.20;;;14.68;;
31087;SDS011;17745;55.914;37.554;2023-03-16T01:30:30;25.20;;;16.55;;
31087;SDS011;17745;55.914;37.554;2023-03-16T01:32:59;26.92;;;16.25;;
31087;SDS011;17745;55.914;37.554;2023-03-16T01:35:29;23.70;;;17.05;;
31087;SDS011;17745;55.914;37.554;2023-03-16T01:37:57;28.55;;;16.90;;
31087;SDS011;17745;55.914;37.554;2023-03-16T01:40:24;23.52;;;16.08;;
31087;SDS011;17745;55.914;37.554;2023-03-16T01:42:59;23.10;;;17.27;;
31087;SDS011;17745;55.914;37.554;2023-03-16T01:48:36;26.05;;;17.00;;
31087;SDS011;17745;55.914;37.554;2023-03-16T01:51:09;26.98;;;17.65;;
31087;SDS011;17745;55.914;37.554;2023-03-16T01:53:45;22.20;;;17.50;;
31087;SDS011;17745;55.914;37.554;2023-03-16T01:56:18;22.70;;;16.98;;
31087;SDS011;17745;55.914;37.554;2023-03-16T01:58:52;27.25;;;17.62;;
31087;SDS011;17745;55.914;37.554;2023-03-16T02:01:24;26.52;;;19.55;;
31087;SDS011;17745;55.914;37.554;2023-03-16T02:03:56;24.80;;;18.50;;
31087;SDS011;17745;55.914;37.554;2023-03-16T02:06:34;23.85;;;17.95;;
31087;SDS011;17745;55.914;37.554;2023-03-16T02:09:04;27.73;;;18.35;;
31087;SDS011;17745;55.914;37.554;2023-03-16T02:11:32;25.73;;;18.02;;
31087;SDS011;17745;55.914;37.554;2023-03-16T02:14:03;24.55;;;17.87;;
31087;SDS011;17745;55.914;37.554;2023-03-16T02:16:35;22.62;;;17.42;;
31087;SDS011;17745;55.914;37.554;2023-03-16T02:19:04;25.58;;;17.98;;
31087;SDS011;17745;55.914;37.554;2023-03-16T02:21:44;25.92;;;18.60;;
31087;SDS011;17745;55.914;37.554;2023-03-16T02:24:19;28.05;;;19.05;;
31087;SDS011;17745;55.914;37.554;2023-03-16T02:26:48;25.05;;;18.05;;
31087;SDS011;17745;55.914;37.554;2023-03-16T02:29:27;26.48;;;18.90;;
31087;SDS011;17745;55.914;37.554;2023-03-16T02:32:23;28.20;;;18.35;;
31087;SDS011;17745;55.914;37.554;2023-03-16T02:34:55;25.05;;;18.33;;
31087;SDS011;17745;55.914;37.554;2023-03-16T02:37:24;24.83;;;18.17;;
31087;SDS011;17745;55.914;37.554;2023-03-16T02:39:52;27.23;;;17.85;;
31087;SDS011;17745;55.914;37.554;2023-03-16T02:42:21;25.95;;;16.80;;
31087;SDS011;17745;55.914;37.554;2023-03-16T02:44:54;27.60;;;17.98;;
31087;SDS011;17745;55.914;37.554;2023-03-16T02:47:28;27.77;;;18.12;;
31087;SDS011;17745;55.914;37.554;2023-03-16T02:50:08;21.60;;;17.25;;
31087;SDS011;17745;55.914;37.554;2023-03-16T02:52:40;22.58;;;17.10;;
31087;SDS011;17745;55.914;37.554;2023-03-16T02:55:13;29.87;;;16.98;;
31087;SDS011;17745;55.914;37.554;2023-03-16T02:57:47;24.63;;;17.27;;
31087;SDS011;17745;55.914;37.554;2023-03-16T03:00:14;28.55;;;17.95;;
31087;SDS011;17745;55.914;37.554;2023-03-16T03:02:45;26.73;;;17.30;;
31087;SDS011;17745;55.914;37.554;2023-03-16T03:05:13;28.70;;;18.48;;
31087;SDS011;17745;55.914;37.554;2023-03-16T03:07:40;26.35;;;16.37;;
31087;SDS011;17745;55.914;37.554;2023-03-16T03:10:09;26.00;;;16.90;;
31087;SDS011;17745;55.914;37.554;2023-03-16T03:12:38;24.12;;;16.40;;
31087;SDS011;17745;55.914;37.554;2023-03-16T03:15:08;23.38;;;16.92;;
31087;SDS011;17745;55.914;37.554;2023-03-16T03:17:37;26.67;;;17.23;;
31087;SDS011;17745;55.914;37.554;2023-03-16T03:20:06;21.67;;;16.17;;
31087;SDS011;17745;55.914;37.554;2023-03-16T03:22:41;26.08;;;17.95;;
31087;SDS011;17745;55.914;37.554;2023-03-16T03:25:11;25.15;;;16.65;;
31087;SDS011;17745;55.914;37.554;2023-03-16T03:27:40;25.42;;;17.35;;
31087;SDS011;17745;55.914;37.554;2023-03-16T03:30:09;25.95;;;16.52;;
31087;SDS011;17745;55.914;37.554;2023-03-16T03:32:39;21.08;;;16.00;;
31087;SDS011;17745;55.914;37.554;2023-03-16T03:35:11;23.10;;;16.35;;
31087;SDS011;17745;55.914;37.554;2023-03-16T03:37:40;26.50;;;17.35;;
31087;SDS011;17745;55.914;37.554;2023-03-16T03:40:10;24.25;;;15.98;;
31087;SDS011;17745;55.914;37.554;2023-03-16T03:42:39;27.00;;;16.27;;
31087;SDS011;17745;55.914;37.554;2023-03-16T03:45:08;24.92;;;15.98;;
31087;SDS011;17745;55.914;37.554;2023-03-16T03:47:38;23.58;;;16.92;;
31087;SDS011;17745;55.914;37.554;2023-03-16T03:50:07;26.92;;;16.40;;
31087;SDS011;17745;55.914;37.554;2023-03-16T03:52:40;22.85;;;17.10;;
31087;SDS011;17745;55.914;37.554;2023-03-16T03:55:10;28.40;;;17.05;;
31087;SDS011;17745;55.914;37.554;2023-03-16T03:57:38;26.02;;;16.33;;
31087;SDS011;17745;55.914;37.554;2023-03-16T04:00:06;24.67;;;16.50;;
31087;SDS011;17745;55.914;37.554;2023-03-16T04:02:38;27.87;;;17.33;;
31087;SDS011;17745;55.914;37.554;2023-03-16T04:05:09;27.58;;;17.67;;
31087;SDS011;17745;55.914;37.554;2023-03-16T04:07:39;27.20;;;17.70;;
31087;SDS011;17745;55.914;37.554;2023-03-16T04:10:09;26.55;;;15.85;;
31087;SDS011;17745;55.914;37.554;2023-03-16T04:12:38;22.30;;;15.18;;
31087;SDS011;17745;55.914;37.554;2023-03-16T04:15:06;33.40;;;16.92;;
31087;SDS011;17745;55.914;37.554;2023-03-16T04:17:35;21.75;;;15.93;;
31087;SDS011;17745;55.914;37.554;2023-03-16T04:20:04;25.70;;;16.15;;
31087;SDS011;17745;55.914;37.554;2023-03-16T04:22:39;24.27;;;15.68;;
31087;SDS011;17745;55.914;37.554;2023-03-16T04:25:07;28.77;;;16.83;;
31087;SDS011;17745;55.914;37.554;2023-03-16T04:27:36;24.33;;;16.77;;
31087;SDS011;17745;55.914;37.554;2023-03-16T04:30:04;25.25;;;16.50;;
31087;SDS011;17745;55.914;37.554;2023-03-16T04:32:36;24.20;;;16.37;;
31087;SDS011;17745;55.914;37.554;2023-03-16T04:35:05;24.83;;;15.75;;
31087;SDS011;17745;55.914;37.554;2023-03-16T04:37:34;24.37;;;15.38;;
31087;SDS011;17745;55.914;37.554;2023-03-16T04:40:03;23.42;;;16.52;;
31087;SDS011;17745;55.914;37.554;2023-03-16T04:42:37;25.25;;;16.10;;
31087;SDS011;17745;55.914;37.554;2023-03-16T04:45:05;28.60;;;16.23;;
31087;SDS011;17745;55.914;37.554;2023-03-16T04:47:33;24.75;;;15.85;;
31087;SDS011;17745;55.914;37.554;2023-03-16T04:50:03;25.48;;;16.33;;
31087;SDS011;17745;55.914;37.554;2023-03-16T04:52:31;23.02;;;16.12;;
31087;SDS011;17745;55.914;37.554;2023-03-16T04:54:59;26.83;;;16.55;;
31087;SDS011;17745;55.914;37.554;2023-03-16T04:57:29;32.75;;;16.75;;
31087;SDS011;17745;55.914;37.554;2023-03-16T04:59:57;30.15;;;17.83;;
31087;SDS011;17745;55.914;37.554;2023-03-16T05:02:24;23.33;;;17.30;;
31087;SDS011;17745;55.914;37.554;2023-03-16T05:04:52;25.98;;;17.05;;
31087;SDS011;17745;55.914;37.554;2023-03-16T05:07:20;25.33;;;16.30;;
31087;SDS011;17745;55.914;37.554;2023-03-16T05:09:48;27.42;;;17.27;;
31087;SDS011;17745;55.914;37.554;2023-03-16T05:12:16;25.02;;;16.55;;
31087;SDS011;17745;55.914;37.554;2023-03-16T05:14:45;27.42;;;16.83;;
31087;SDS011;17745;55.914;37.554;2023-03-16T05:17:13;23.42;;;17.12;;
31087;SDS011;17745;55.914;37.554;2023-03-16T05:19:41;22.37;;;16.02;;
31087;SDS011;17745;55.914;37.554;2023-03-16T05:22:09;23.30;;;16.17;;
31087;SDS011;17745;55.914;37.554;2023-03-16T05:24:37;32.83;;;15.90;;
31087;SDS011;17745;55.914;37.554;2023-03-16T05:27:05;27.17;;;16.83;;
31087;SDS011;17745;55.914;37.554;2023-03-16T05:29:33;31.80;;;17.12;;
31087;SDS011;17745;55.914;37.554;2023-03-16T05:32:02;36.78;;;16.30;;
31087;SDS011;17745;55.914;37.554;2023-03-16T05:34:32;25.80;;;16.42;;
31087;SDS011;17745;55.914;37.554;2023-03-16T05:37:00;27.65;;;17.55;;
31087;SDS011;17745;55.914;37.554;2023-03-16T05:39:30;31.35;;;17.52;;
31087;SDS011;17745;55.914;37.554;2023-03-16T05:42:00;25.90;;;17.12;;
31087;SDS011;17745;55.914;37.554;2023-03-16T05:44:29;28.20;;;17.83;;
31087;SDS011;17745;55.914;37.554;2023-03-16T05:46:57;30.33;;;16.85;;
31087;SDS011;17745;55.914;37.554;2023-03-16T05:49:27;26.08;;;16.90;;
31087;SDS011;17745;55.914;37.554;2023-03-16T05:51:56;23.73;;;16.20;;
31087;SDS011;17745;55.914;37.554;2023-03-16T05:54:24;27.92;;;17.05;;
31087;SDS011;17745;55.914;37.554;2023-03-16T05:56:52;27.42;;;18.25;;
31087;SDS011;17745;55.914;37.554;2023-03-16T05:59:20;31.17;;;19.15;;
31087;SDS011;17745;55.914;37.554;2023-03-16T06:01:51;30.08;;;18.10;;
31087;SDS011;17745;55.914;37.554;2023-03-16T06:04:19;30.45;;;17.58;;
31087;SDS011;17745;55.914;37.554;2023-03-16T06:06:49;28.17;;;18.17;;
31087;SDS011;17745;55.914;37.554;2023-03-16T06:09:17;30.08;;;17.67;;
31087;SDS011;17745;55.914;37.554;2023-03-16T06:11:45;28.27;;;18.35;;
31087;SDS011;17745;55.914;37.554;2023-03-16T06:14:16;28.87;;;18.80;;
31087;SDS011;17745;55.914;37.554;2023-03-16T06:16:46;35.38;;;19.50;;
31087;SDS011;17745;55.914;37.554;2023-03-16T06:19:20;27.90;;;17.45;;
31087;SDS011;17745;55.914;37.554;2023-03-16T06:21:52;30.37;;;18.37;;
31087;SDS011;17745;55.914;37.554;2023-03-16T06:24:24;33.65;;;19.37;;
31087;SDS011;17745;55.914;37.554;2023-03-16T06:26:54;30.40;;;19.15;;
31087;SDS011;17745;55.914;37.554;2023-03-16T06:29:26;26.55;;;18.87;;
31087;SDS011;17745;55.914;37.554;2023-03-16T06:31:55;37.63;;;19.50;;
31087;SDS011;17745;55.914;37.554;2023-03-16T06:34:24;33.28;;;19.27;;
31087;SDS011;17745;55.914;37.554;2023-03-16T06:36:56;27.10;;;18.92;;
31087;SDS011;17745;55.914;37.554;2023-03-16T06:39:29;29.17;;;19.15;;
31087;SDS011;17745;55.914;37.554;2023-03-16T06:42:02;31.85;;;18.83;;
31087;SDS011;17745;55.914;37.554;2023-03-16T06:44:32;33.28;;;19.67;;
31087;SDS011;17745;55.914;37.554;2023-03-16T06:47:02;28.10;;;19.30;;
31087;SDS011;17745;55.914;37.554;2023-03-16T06:49:31;36.15;;;19.95;;
31087;SDS011;17745;55.914;37.554;2023-03-16T06:52:15;35.50;;;20.00;;
31087;SDS011;17745;55.914;37.554;2023-03-16T06:54:48;31.67;;;20.00;;
31087;SDS011;17745;55.914;37.554;2023-03-16T06:57:20;32.33;;;20.50;;
31087;SDS011;17745;55.914;37.554;2023-03-16T06:59:49;38.35;;;19.98;;
31087;SDS011;17745;55.914;37.554;2023-03-16T07:02:22;33.60;;;20.77;;
31087;SDS011;17745;55.914;37.554;2023-03-16T07:04:54;29.87;;;20.73;;
31087;SDS011;17745;55.914;37.554;2023-03-16T07:07:28;37.83;;;20.05;;
31087;SDS011;17745;55.914;37.554;2023-03-16T07:09:59;36.75;;;21.33;;
31087;SDS011;17745;55.914;37.554;2023-03-16T07:12:28;32.15;;;20.65;;
31087;SDS011;17745;55.914;37.554;2023-03-16T07:14:56;34.28;;;21.85;;
31087;SDS011;17745;55.914;37.554;2023-03-16T07:17:29;35.97;;;22.45;;
31087;SDS011;17745;55.914;37.554;2023-03-16T07:20:05;39.72;;;24.10;;
31087;SDS011;17745;55.914;37.554;2023-03-16T07:22:38;33.58;;;22.30;;
31087;SDS011;17745;55.914;37.554;2023-03-16T07:25:15;33.55;;;21.35;;
31087;SDS011;17745;55.914;37.554;2023-03-16T07:28:01;38.53;;;22.50;;
31087;SDS011;17745;55.914;37.554;2023-03-16T07:30:33;40.75;;;23.00;;
31087;SDS011;17745;55.914;37.554;2023-03-16T07:33:09;32.15;;;22.20;;
31087;SDS011;17745;55.914;37.554;2023-03-16T07:35:41;31.17;;;20.17;;
31087;SDS011;17745;55.914;37.554;2023-03-16T07:38:13;36.35;;;20.60;;
31087;SDS011;17745;55.914;37.554;2023-03-16T07:40:48;34.70;;;21.37;;
31087;SDS011;17745;55.914;37.554;2023-03-16T07:43:22;26.80;;;21.08;;
31087;SDS011;17745;55.914;37.554;2023-03-16T07:48:28;37.05;;;20.85;;
31087;SDS011;17745;55.914;37.554;2023-03-16T07:51:02;32.90;;;19.97;;
31087;SDS011;17745;55.914;37.554;2023-03-16T07:53:35;26.77;;;19.00;;
31087;SDS011;17745;55.914;37.554;2023-03-16T07:56:05;37.67;;;20.30;;
31087;SDS011;17745;55.914;37.554;2023-03-16T07:58:35;34.28;;;20.40;;
31087;SDS011;17745;55.914;37.554;2023-03-16T08:01:07;28.98;;;19.77;;
31087;SDS011;17745;55.914;37.554;2023-03-16T08:03:37;27.80;;;19.58;;
31087;SDS011;17745;55.914;37.554;2023-03-16T08:06:10;28.58;;;18.20;;
31087;SDS011;17745;55.914;37.554;2023-03-16T08:08:40;32.67;;;19.73;;
31087;SDS011;17745;55.914;37.554;2023-03-16T08:11:21;33.90;;;18.65;;
31087;SDS011;17745;55.914;37.554;2023-03-16T08:13:52;33.40;;;19.62;;
31087;SDS011;17745;55.914;37.554;2023-03-16T08:16:25;25.42;;;18.37;;
31087;SDS011;17745;55.914;37.554;2023-03-16T08:18:56;34.95;;;20.50;;
31087;SDS011;17745;55.914;37.554;2023-03-16T08:24:07;36.33;;;18.25;;
31087;SDS011;17745;55.914;37.554;2023-03-16T08:26:46;29.87;;;19.23;;
31087;SDS011;17745;55.914;37.554;2023-03-16T08:29:16;28.73;;;18.62;;
31087;SDS011;17745;55.914;37.554;2023-03-16T08:31:46;28.38;;;18.50;;
31087;SDS011;17745;55.914;37.554;2023-03-16T08:34:20;31.80;;;19.12;;
31087;SDS011;17745;55.914;37.554;2023-03-16T08:36:50;33.97;;;19.90;;
31087;SDS011;17745;55.914;37.554;2023-03-16T08:42:10;28.95;;;20.67;;
31087;SDS011;17745;55.914;37.554;2023-03-16T08:44:40;33.83;;;20.90;;
31087;SDS011;17745;55.914;37.554;2023-03-16T08:47:10;30.00;;;19.60;;
31087;SDS011;17745;55.914;37.554;2023-03-16T08:49:41;32.88;;;21.15;;
31087;SDS011;17745;55.914;37.554;2023-03-16T08:52:12;39.50;;;22.00;;
31087;SDS011;17745;55.914;37.554;2023-03-16T08:54:48;32.42;;;22.42;;
31087;SDS011;17745;55.914;37.554;2023-03-16T08:57:18;37.70;;;23.40;;
31087;SDS011;17745;55.914;37.554;2023-03-16T08:59:56;37.35;;;22.70;;
31087;SDS011;17745;55.914;37.554;2023-03-16T09:02:25;40.05;;;23.38;;
31087;SDS011;17745;55.914;37.554;2023-03-16T09:04:58;33.75;;;23.87;;
31087;SDS011;17745;55.914;37.554;2023-03-16T09:07:30;36.05;;;22.30;;
31087;SDS011;17745;55.914;37.554;2023-03-16T09:10:06;38.25;;;23.98;;
31087;SDS011;17745;55.914;37.554;2023-03-16T09:12:41;35.25;;;22.77;;
31087;SDS011;17745;55.914;37.554;2023-03-16T09:15:12;32.13;;;22.80;;
31087;SDS011;17745;55.914;37.554;2023-03-16T09:17:41;40.15;;;24.42;;
31087;SDS011;17745;55.914;37.554;2023-03-16T09:20:20;38.95;;;23.92;;
31087;SDS011;17745;55.914;37.554;2023-03-16T09:22:51;35.05;;;24.45;;
31087;SDS011;17745;55.914;37.554;2023-03-16T09:25:28;37.85;;;24.87;;
31087;SDS011;17745;55.914;37.554;2023-03-16T09:28:03;43.38;;;24.08;;
31087;SDS011;17745;55.914;37.554;2023-03-16T09:30:32;36.80;;;24.90;;
31087;SDS011;17745;55.914;37.554;2023-03-16T09:33:01;39.05;;;25.40;;
31087;SDS011;17745;55.914;37.554;2023-03-16T09:35:36;35.65;;;23.40;;
31087;SDS011;17745;55.914;37.554;2023-03-16T09:44:27;37.55;;;25.77;;
31087;SDS011;17745;55.914;37.554;2023-03-16T09:49:51;40.72;;;24.02;;
31087;SDS011;17745;55.914;37.554;2023-03-16T09:52:24;37.70;;;25.70;;
31087;SDS011;17745;55.914;37.554;2023-03-16T09:54:57;41.63;;;26.60;;
31087;SDS011;17745;55.914;37.554;2023-03-16T09:57:35;39.40;;;24.70;;
31087;SDS011;17745;55.914;37.554;2023-03-16T10:03:00;34.80;;;23.90;;
31087;SDS011;17745;55.914;37.554;2023-03-16T10:08:18;39.78;;;24.95;;
31087;SDS011;17745;55.914;37.554;2023-03-16T10:11:13;33.70;;;23.87;;
31087;SDS011;17745;55.914;37.554;2023-03-16T10:14:00;39.10;;;24.05;;
31087;SDS011;17745;55.914;37.554;2023-03-16T10:16:54;31.08;;;22.50;;
31087;SDS011;17745;55.914;37.554;2023-03-16T10:19:33;29.92;;;21.70;;
31087;SDS011;17745;55.914;37.554;2023-03-16T10:22:19;36.17;;;22.62;;
31087;SDS011;17745;55.914;37.554;2023-03-16T10:25:07;34.30;;;22.60;;
31087;SDS011;17745;55.914;37.554;2023-03-16T10:27:47;31.50;;;21.98;;
31087;SDS011;17745;55.914;37.554;2023-03-16T10:30:23;33.97;;;22.87;;
31087;SDS011;17745;55.914;37.554;2023-03-16T10:33:02;31.77;;;21.48;;
31087;SDS011;17745;55.914;37.554;2023-03-16T10:35:43;29.95;;;22.52;;
31087;SDS011;17745;55.914;37.554;2023-03-16T10:41:20;26.70;;;20.15;;
31087;SDS011;17745;55.914;37.554;2023-03-16T10:43:55;31.95;;;23.08;;
31087;SDS011;17745;55.914;37.554;2023-03-16T10:46:36;31.08;;;22.23;;
31087;SDS011;17745;55.914;37.554;2023-03-16T10:49:18;36.38;;;20.98;;
31087;SDS011;17745;55.914;37.554;2023-03-16T10:52:03;30.42;;;21.33;;
31087;SDS011;17745;55.914;37.554;2023-03-16T10:54:36;29.52;;;20.80;;
31087;SDS011;17745;55.914;37.554;2023-03-16T10:57:20;28.55;;;19.50;;
31087;SDS011;17745;55.914;37.554;2023-03-16T10:59:50;27.08;;;20.95;;
31087;SDS011;17745;55.914;37.554;2023-03-16T11:02:30;31.20;;;20.45;;
31087;SDS011;17745;55.914;37.554;2023-03-16T11:05:12;28.67;;;20.12;;
31087;SDS011;17745;55.914;37.554;2023-03-16T11:07:46;30.67;;;20.67;;
31087;SDS011;17745;55.914;37.554;2023-03-16T11:10:24;28.15;;;20.35;;
31087;SDS011;17745;55.914;37.554;2023-03-16T11:13:01;29.00;;;20.58;;
31087;SDS011;17745;55.914;37.554;2023-03-16T11:15:34;27.75;;;19.20;;
31087;SDS011;17745;55.914;37.554;2023-03-16T11:18:14;34.30;;;21.73;;
31087;SDS011;17745;55.914;37.554;2023-03-16T11:20:54;28.38;;;20.50;;
31087;SDS011;17745;55.914;37.554;2023-03-16T11:23:28;30.02;;;21.52;;
31087;SDS011;17745;55.914;37.554;2023-03-16T11:26:01;35.00;;;22.23;;
31087;SDS011;17745;55.914;37.554;2023-03-16T11:28:41;33.42;;;21.20;;
31087;SDS011;17745;55.914;37.554;2023-03-16T11:31:18;31.67;;;21.37;;
31087;SDS011;17745;55.914;37.554;2023-03-16T11:33:58;30.95;;;22.65;;
31087;SDS011;17745;55.914;37.554;2023-03-16T11:36:33;31.62;;;21.65;;
31087;SDS011;17745;55.914;37.554;2023-03-16T11:39:15;28.08;;;20.80;;
31087;SDS011;17745;55.914;37.554;2023-03-16T11:44:51;33.45;;;22.10;;
31087;SDS011;17745;55.914;37.554;2023-03-16T11:50:49;34.65;;;23.30;;
31087;SDS011;17745;55.914;37.554;2023-03-16T11:53:33;30.48;;;23.00;;
31087;SDS011;17745;55.914;37.554;2023-03-16T11:56:27;34.30;;;22.33;;
31087;SDS011;17745;55.914;37.554;2023-03-16T12:02:14;30.40;;;22.17;;
31087;SDS011;17745;55.914;37.554;2023-03-16T12:05:02;30.45;;;22.77;;
31087;SDS011;17745;55.914;37.554;2023-03-16T12:11:10;32.42;;;23.02;;
31087;SDS011;17745;55.914;37.554;2023-03-16T12:13:49;33.08;;;22.45;;
31087;SDS011;17745;55.914;37.554;2023-03-16T12:16:27;30.12;;;21.92;;
31087;SDS011;17745;55.914;37.554;2023-03-16T12:18:58;30.48;;;22.58;;
31087;SDS011;17745;55.914;37.554;2023-03-16T12:21:30;30.17;;;21.48;;
31087;SDS011;17745;55.914;37.554;2023-03-16T12:24:05;33.40;;;22.15;;
31087;SDS011;17745;55.914;37.554;2023-03-16T12:26:41;33.15;;;22.75;;
31087;SDS011;17745;55.914;37.554;2023-03-16T12:29:12;36.28;;;24.05;;
31087;SDS011;17745;55.914;37.554;2023-03-16T12:31:50;33.05;;;25.17;;
31087;SDS011;17745;55.914;37.554;2023-03-16T12:34:21;32.65;;;22.80;;
31087;SDS011;17745;55.914;37.554;2023-03-16T12:40:16;33.90;;;24.70;;
31087;SDS011;17745;55.914;37.554;2023-03-16T12:43:11;35.05;;;24.63;;
31087;SDS011;17745;55.914;37.554;2023-03-16T12:45:53;33.75;;;24.02;;
31087;SDS011;17745;55.914;37.554;2023-03-16T12:48:27;34.70;;;24.45;;
31087;SDS011;17745;55.914;37.554;2023-03-16T12:51:10;36.50;;;24.42;;
31087;SDS011;17745;55.914;37.554;2023-03-16T12:53:43;37.38;;;25.12;;
31087;SDS011;17745;55.914;37.554;2023-03-16T12:56:14;36.38;;;25.65;;
31087;SDS011;17745;55.914;37.554;2023-03-16T12:58:46;44.38;;;28.17;;
31087;SDS011;17745;55.914;37.554;2023-03-16T13:01:19;37.83;;;27.85;;
31087;SDS011;17745;55.914;37.554;2023-03-16T13:03:58;37.42;;;27.58;;
31087;SDS011;17745;55.914;37.554;2023-03-16T13:06:31;41.72;;;28.40;;
31087;SDS011;17745;55.914;37.554;2023-03-16T13:09:02;38.78;;;27.05;;
31087;SDS011;17745;55.914;37.554;2023-03-16T13:11:43;44.97;;;27.30;;
31087;SDS011;17745;55.914;37.554;2023-03-16T13:14:36;40.30;;;27.35;;
31087;SDS011;17745;55.914;37.554;2023-03-16T13:17:25;35.33;;;24.90;;
31087;SDS011;17745;55.914;37.554;2023-03-16T13:20:02;35.72;;;26.42;;
31087;SDS011;17745;55.914;37.554;2023-03-16T13:22:43;37.22;;;26.08;;
31087;SDS011;17745;55.914;37.554;2023-03-16T13:25:16;36.25;;;25.35;;
31087;SDS011;17745;55.914;37.554;2023-03-16T13:27:57;34.33;;;23.50;;
31087;SDS011;17745;55.914;37.554;2023-03-16T13:30:34;34.55;;;23.27;;
31087;SDS011;17745;55.914;37.554;2023-03-16T13:33:22;32.58;;;23.00;;
31087;SDS011;17745;55.914;37.554;2023-03-16T13:35:57;33.25;;;21.98;;
31087;SDS011;17745;55.914;37.554;2023-03-16T13:38:27;35.08;;;23.67;;
31087;SDS011;17745;55.914;37.554;2023-03-16T13:40:55;36.40;;;23.08;;
31087;SDS011;17745;55.914;37.554;2023-03-16T13:43:29;28.12;;;19.92;;
31087;SDS011;17745;55.914;37.554;2023-03-16T13:46:11;32.25;;;21.87;;
31087;SDS011;17745;55.914;37.554;2023-03-16T13:48:40;31.65;;;20.02;;
31087;SDS011;17745;55.914;37.554;2023-03-16T13:51:10;35.47;;;24.25;;
31087;SDS011;17745;55.914;37.554;2023-03-16T13:53:43;34.38;;;20.75;;
31087;SDS011;17745;55.914;37.554;2023-03-16T13:56:15;34.17;;;23.02;;
31087;SDS011;17745;55.914;37.554;2023-03-16T13:58:48;32.28;;;20.98;;
31087;SDS011;17745;55.914;37.554;2023-03-16T14:01:21;38.00;;;21.42;;
31087;SDS011;17745;55.914;37.554;2023-03-16T14:03:56;34.92;;;24.02;;
31087;SDS011;17745;55.914;37.554;2023-03-16T14:06:29;33.72;;;21.42;;
31087;SDS011;17745;55.914;37.554;2023-03-16T14:09:03;33.88;;;23.55;;
31087;SDS011;17745;55.914;37.554;2023-03-16T14:11:34;36.25;;;25.33;;
31087;SDS011;17745;55.914;37.554;2023-03-16T14:14:12;33.28;;;23.48;;
31087;SDS011;17745;55.914;37.554;2023-03-16T14:16:40;41.72;;;23.60;;
31087;SDS011;17745;55.914;37.554;2023-03-16T14:19:13;39.35;;;24.63;;
31087;SDS011;17745;55.914;37.554;2023-03-16T14:22:15;35.35;;;23.75;;
31087;SDS011;17745;55.914;37.554;2023-03-16T14:25:13;38.22;;;24.58;;
31087;SDS011;17745;55.914;37.554;2023-03-16T14:28:32;30.90;;;19.95;;
31087;SDS011;17745;55.914;37.554;2023-03-16T14:31:37;29.48;;;19.25;;
31087;SDS011;17745;55.914;37.554;2023-03-16T14:34:17;30.25;;;19.37;;
31087;SDS011;17745;55.914;37.554;2023-03-16T14:36:48;27.80;;;16.65;;
31087;SDS011;17745;55.914;37.554;2023-03-16T14:39:18;32.45;;;21.40;;
31087;SDS011;17745;55.914;37.554;2023-03-16T14:41:53;31.85;;;21.70;;
31087;SDS011;17745;55.914;37.554;2023-03-16T14:44:23;32.83;;;20.37;;
31087;SDS011;17745;55.914;37.554;2023-03-16T14:46:57;28.23;;;19.25;;
31087;SDS011;17745;55.914;37.554;2023-03-16T14:49:29;29.75;;;18.85;;
31087;SDS011;17745;55.914;37.554;2023-03-16T14:52:00;25.23;;;16.42;;
31087;SDS011;17745;55.914;37.554;2023-03-16T14:54:30;24.77;;;14.40;;
31087;SDS011;17745;55.914;37.554;2023-03-16T14:57:00;24.37;;;14.55;;
31087;SDS011;17745;55.914;37.554;2023-03-16T14:59:32;32.33;;;19.30;;
31087;SDS011;17745;55.914;37.554;2023-03-16T15:02:05;27.65;;;18.90;;
31087;SDS011;17745;55.914;37.554;2023-03-16T15:04:46;28.92;;;18.52;;
31087;SDS011;17745;55.914;37.554;2023-03-16T15:07:28;28.30;;;18.83;;
31087;SDS011;17745;55.914;37.554;2023-03-16T15:10:18;34.88;;;19.73;;
31087;SDS011;17745;55.914;37.554;2023-03-16T15:13:06;29.20;;;21.25;;
31087;SDS011;17745;55.914;37.554;2023-03-16T15:15:59;28.73;;;17.50;;
31087;SDS011;17745;55.914;37.554;2023-03-16T15:18:39;38.40;;;23.70;;
31087;SDS011;17745;55.914;37.554;2023-03-16T15:21:13;18.87;;;12.05;;
31087;SDS011;17745;55.914;37.554;2023-03-16T15:23:46;32.33;;;20.75;;
31087;SDS011;17745;55.914;37.554;2023-03-16T15:26:29;33.05;;;20.08;;
31087;SDS011;17745;55.914;37.554;2023-03-16T15:32:00;28.90;;;15.73;;